createdAt,value
2019-02-21T00:02:02.799Z,10.30
2019-02-21T00:04:30.671Z,10.10
2019-02-21T00:06:58.147Z,9.30
2019-02-21T00:09:25.718Z,9.50
2019-02-21T00:11:53.204Z,9.13
2019-02-21T00:14:20.834Z,9.87
2019-02-21T00:16:48.712Z,9.17
2019-02-21T00:19:16.652Z,9.00
2019-02-21T00:21:44.556Z,9.47
2019-02-21T00:24:12.159Z,9.40
2019-02-21T00:26:40.272Z,8.97
2019-02-21T00:29:07.889Z,7.60
2019-02-21T00:31:35.455Z,8.70
2019-02-21T00:34:02.974Z,11.23
2019-02-21T00:36:30.552Z,9.20
2019-02-21T00:38:58.411Z,9.80
2019-02-21T00:41:25.895Z,10.80
2019-02-21T00:43:53.368Z,9.87
2019-02-21T00:46:20.918Z,10.70
2019-02-21T00:48:48.430Z,10.73
2019-02-21T00:51:16.010Z,13.50
2019-02-21T00:53:43.938Z,11.17
2019-02-21T00:56:11.765Z,8.40
2019-02-21T00:58:39.410Z,9.03
2019-02-21T01:01:07.023Z,8.70
2019-02-21T01:03:34.623Z,9.60
2019-02-21T01:06:02.263Z,8.73
2019-02-21T01:08:30.497Z,9.30
2019-02-21T01:10:58.283Z,9.97
2019-02-21T01:13:26.093Z,11.30
2019-02-21T01:15:54.016Z,10.97
2019-02-21T01:18:21.780Z,10.60
2019-02-21T01:20:49.388Z,9.60
2019-02-21T01:23:16.985Z,11.70
2019-02-21T01:25:44.830Z,11.90
2019-02-21T01:28:12.671Z,12.37
2019-02-21T01:30:40.954Z,12.80
2019-02-21T01:33:08.783Z,13.23
2019-02-21T01:35:36.303Z,16.03
2019-02-21T01:38:03.920Z,16.40
2019-02-21T01:40:31.538Z,17.67
2019-02-21T01:42:59.037Z,17.13
2019-02-21T01:45:27.249Z,18.67
2019-02-21T01:47:55.434Z,17.00
2019-02-21T01:50:22.978Z,15.20
2019-02-21T01:52:50.531Z,18.00
2019-02-21T01:55:18.656Z,15.70
2019-02-21T01:57:46.260Z,14.03
2019-02-21T02:00:13.987Z,15.90
2019-02-21T02:02:41.871Z,13.30
2019-02-21T02:05:09.470Z,12.97
2019-02-21T02:07:37.646Z,12.13
2019-02-21T02:10:06.207Z,13.97
2019-02-21T02:12:33.706Z,13.80
2019-02-21T02:15:01.348Z,13.80
2019-02-21T02:17:28.912Z,12.03
2019-02-21T02:19:56.444Z,13.33
2019-02-21T02:22:23.918Z,12.33
2019-02-21T02:24:51.843Z,13.37
2019-02-21T02:27:19.601Z,15.33
2019-02-21T02:29:47.129Z,11.40
2019-02-21T02:32:15.040Z,13.50
2019-02-21T02:34:43.616Z,13.63
2019-02-21T02:37:11.540Z,12.33
2019-02-21T02:39:39.458Z,11.70
2019-02-21T02:42:07.323Z,12.77
2019-02-21T02:44:35.484Z,13.70
2019-02-21T02:47:03.343Z,13.53
2019-02-21T02:49:31.214Z,15.10
2019-02-21T02:51:59.234Z,12.53
2019-02-21T02:54:26.778Z,13.50
2019-02-21T02:56:54.922Z,14.37
2019-02-21T02:59:22.819Z,12.83
2019-02-21T03:01:50.926Z,13.23
2019-02-21T03:04:18.558Z,12.20
2019-02-21T03:06:46.334Z,13.77
2019-02-21T03:09:13.902Z,12.70
2019-02-21T03:11:41.996Z,12.20
2019-02-21T03:14:09.537Z,13.67
2019-02-21T03:16:37.149Z,11.33
2019-02-21T03:19:05.199Z,12.67
2019-02-21T03:21:33.435Z,11.97
2019-02-21T03:24:02.095Z,12.53
2019-02-21T03:26:30.617Z,13.37
2019-02-21T03:28:58.200Z,13.53
2019-02-21T03:31:25.865Z,12.50
2019-02-21T03:33:53.476Z,13.87
2019-02-21T03:36:21.344Z,13.70
2019-02-21T03:38:49.292Z,11.80
2019-02-21T03:41:17.182Z,13.70
2019-02-21T03:43:44.987Z,13.20
2019-02-21T03:46:12.901Z,12.63
2019-02-21T03:48:40.725Z,12.87
2019-02-21T03:51:08.654Z,14.93
2019-02-21T03:53:36.187Z,13.03
2019-02-21T03:56:03.875Z,13.00
2019-02-21T03:58:31.761Z,11.97
2019-02-21T04:00:59.646Z,12.23
2019-02-21T04:03:27.527Z,11.97
2019-02-21T04:05:55.148Z,14.40
2019-02-21T04:08:22.959Z,13.90
2019-02-21T04:10:50.732Z,13.00
2019-02-21T04:13:18.536Z,13.23
2019-02-21T04:15:46.114Z,13.13
2019-02-21T04:18:14.179Z,13.77
2019-02-21T04:20:43.063Z,11.53
2019-02-21T04:23:10.644Z,12.77
2019-02-21T04:25:40.949Z,11.80
2019-02-21T04:28:08.436Z,12.30
2019-02-21T04:30:37.036Z,12.30
2019-02-21T04:33:04.666Z,12.93
2019-02-21T04:35:32.583Z,13.20
2019-02-21T04:38:00.134Z,14.63
2019-02-21T04:40:27.997Z,12.60
2019-02-21T04:42:56.498Z,13.83
2019-02-21T04:45:24.866Z,12.20
2019-02-21T04:47:53.024Z,12.90
2019-02-21T04:50:21.483Z,13.10
2019-02-21T04:52:49.071Z,12.73
2019-02-21T04:55:16.895Z,12.73
2019-02-21T04:57:44.652Z,14.17
2019-02-21T05:00:12.242Z,12.83
2019-02-21T05:02:40.553Z,12.73
2019-02-21T05:05:08.516Z,14.10
2019-02-21T05:07:36.980Z,13.17
2019-02-21T05:10:04.845Z,15.07
2019-02-21T05:12:33.063Z,13.87
2019-02-21T05:15:00.935Z,12.80
2019-02-21T05:17:29.146Z,12.57
2019-02-21T05:20:00.935Z,13.83
2019-02-21T05:22:28.542Z,13.00
2019-02-21T05:24:56.588Z,13.40
2019-02-21T05:27:29.010Z,11.97
2019-02-21T05:29:57.644Z,10.80
2019-02-21T05:32:43.070Z,11.33
2019-02-21T05:35:32.258Z,12.50
2019-02-21T05:38:13.759Z,12.23
2019-02-21T05:41:04.044Z,12.73
2019-02-21T05:43:48.940Z,13.50
2019-02-21T05:46:28.759Z,13.17
2019-02-21T05:49:15.900Z,12.97
2019-02-21T05:52:05.815Z,12.80
2019-02-21T05:54:45.631Z,13.87
2019-02-21T05:57:27.059Z,13.13
2019-02-21T06:00:17.526Z,13.73
2019-02-21T06:02:56.045Z,15.03
2019-02-21T06:05:41.983Z,13.43
2019-02-21T06:08:32.760Z,14.10
2019-02-21T06:11:20.045Z,16.20
2019-02-21T06:14:06.038Z,13.70
2019-02-21T06:16:58.855Z,14.30
2019-02-21T06:19:49.054Z,13.30
2019-02-21T06:22:51.246Z,14.80
2019-02-21T06:25:36.810Z,14.40
2019-02-21T06:28:09.107Z,14.63
2019-02-21T06:30:50.292Z,14.77
2019-02-21T06:33:19.331Z,14.27
2019-02-21T06:35:48.407Z,13.83
2019-02-21T06:38:16.567Z,15.50
2019-02-21T06:40:47.004Z,14.13
2019-02-21T06:43:14.951Z,16.17
2019-02-21T06:45:42.438Z,16.00
2019-02-21T06:48:10.222Z,15.93
2019-02-21T06:50:37.686Z,17.97
2019-02-21T06:53:05.477Z,16.73
2019-02-21T06:55:32.942Z,17.47
2019-02-21T06:58:00.804Z,17.83
2019-02-21T07:00:28.597Z,18.47
2019-02-21T07:02:56.256Z,17.80
2019-02-21T07:05:23.794Z,20.03
2019-02-21T07:07:51.762Z,20.23
2019-02-21T07:10:19.439Z,21.80
2019-02-21T07:12:46.975Z,19.93
2019-02-21T07:15:15.285Z,21.43
2019-02-21T07:17:49.308Z,21.93
2019-02-21T07:20:13.685Z,23.43
2019-02-21T07:22:41.247Z,21.43
2019-02-21T07:25:32.479Z,22.47
2019-02-21T07:28:10.972Z,22.77
2019-02-21T07:30:29.610Z,23.57
2019-02-21T07:32:57.441Z,22.00
2019-02-21T07:35:25.265Z,23.53
2019-02-21T07:37:53.216Z,23.80
2019-02-21T07:40:21.103Z,22.60
2019-02-21T07:42:48.906Z,22.90
2019-02-21T07:45:16.375Z,22.93
2019-02-21T07:47:44.442Z,23.67
2019-02-21T07:50:12.002Z,23.80
2019-02-21T07:52:39.428Z,24.03
2019-02-21T07:55:07.329Z,23.10
2019-02-21T07:57:35.176Z,22.30
2019-02-21T08:00:02.930Z,24.20
2019-02-21T08:02:30.395Z,24.27
2019-02-21T08:04:58.514Z,23.47
2019-02-21T08:07:26.428Z,25.63
2019-02-21T08:09:55.436Z,25.50
2019-02-21T08:12:23.359Z,25.13
2019-02-21T08:14:51.880Z,25.50
2019-02-21T08:17:19.513Z,26.43
2019-02-21T08:19:47.395Z,23.47
2019-02-21T08:22:15.283Z,24.33
2019-02-21T08:24:42.821Z,24.23
2019-02-21T08:27:11.306Z,23.20
2019-02-21T08:29:38.855Z,21.87
2019-02-21T08:32:06.467Z,25.20
2019-02-21T08:34:41.010Z,23.83
2019-02-21T08:37:08.923Z,24.00
2019-02-21T08:39:36.538Z,23.30
2019-02-21T08:42:04.460Z,24.90
2019-02-21T08:44:32.278Z,25.27
2019-02-21T08:47:00.987Z,29.63
2019-02-21T08:49:28.690Z,26.07
2019-02-21T08:51:56.470Z,23.03
2019-02-21T08:54:24.113Z,24.50
2019-02-21T08:56:52.331Z,23.30
2019-02-21T08:59:20.158Z,23.70
2019-02-21T09:01:48.033Z,25.50
2019-02-21T09:04:26.689Z,24.40
2019-02-21T09:06:46.854Z,22.93
2019-02-21T09:09:14.462Z,25.33
2019-02-21T09:11:42.232Z,25.47
2019-02-21T09:14:10.231Z,24.67
2019-02-21T09:16:38.682Z,23.87
2019-02-21T09:19:06.694Z,24.10
2019-02-21T09:21:35.036Z,24.37
2019-02-21T09:24:02.626Z,25.83
2019-02-21T09:26:30.513Z,23.90
2019-02-21T09:28:58.728Z,22.20
2019-02-21T09:31:26.457Z,21.90
2019-02-21T09:33:53.931Z,24.43
2019-02-21T09:36:21.410Z,22.90
2019-02-21T09:38:48.964Z,24.27
2019-02-21T09:41:16.749Z,23.60
2019-02-21T09:43:44.952Z,23.37
2019-02-21T09:46:12.859Z,26.60
2019-02-21T09:48:40.760Z,23.80
2019-02-21T09:51:08.684Z,24.00
2019-02-21T09:53:36.570Z,22.67
2019-02-21T09:56:04.161Z,23.30
2019-02-21T09:58:31.974Z,23.97
2019-02-21T10:01:00.139Z,25.27
2019-02-21T10:03:27.967Z,23.10
2019-02-21T10:05:55.596Z,27.73
2019-02-21T10:08:23.489Z,24.47
2019-02-21T10:10:51.951Z,23.80
2019-02-21T10:13:19.811Z,23.33
2019-02-21T10:15:47.460Z,25.40
2019-02-21T10:18:15.594Z,25.20
2019-02-21T10:20:43.871Z,23.63
2019-02-21T10:23:11.322Z,24.40
2019-02-21T10:25:38.915Z,23.60
2019-02-21T10:28:06.828Z,24.90
2019-02-21T10:30:36.424Z,25.80
2019-02-21T10:33:05.921Z,25.17
2019-02-21T10:35:33.887Z,25.03
2019-02-21T10:38:01.485Z,27.03
2019-02-21T10:40:29.884Z,24.63
2019-02-21T10:42:57.471Z,23.90
2019-02-21T10:45:25.614Z,22.97
2019-02-21T10:47:53.190Z,23.67
2019-02-21T10:50:20.994Z,24.63
2019-02-21T10:52:48.704Z,24.00
2019-02-21T10:55:16.765Z,25.50
2019-02-21T10:57:45.685Z,25.70
2019-02-21T11:00:18.807Z,25.27
2019-02-21T11:02:46.767Z,24.80
2019-02-21T11:05:14.634Z,27.60
2019-02-21T11:07:42.535Z,24.40
2019-02-21T11:10:11.121Z,26.70
2019-02-21T11:12:38.891Z,24.90
2019-02-21T11:15:09.423Z,24.47
2019-02-21T11:17:37.275Z,23.87
2019-02-21T11:20:07.896Z,22.30
2019-02-21T11:22:35.697Z,23.60
2019-02-21T11:25:03.720Z,25.50
2019-02-21T11:27:31.558Z,24.10
2019-02-21T11:29:59.777Z,23.40
2019-02-21T11:32:27.706Z,23.90
2019-02-21T11:35:05.746Z,22.70
2019-02-21T11:37:25.677Z,23.17
2019-02-21T11:39:53.519Z,23.27
2019-02-21T11:42:22.111Z,23.67
2019-02-21T11:44:49.610Z,24.50
2019-02-21T11:47:17.127Z,24.00
2019-02-21T11:49:45.039Z,25.10
2019-02-21T11:52:14.347Z,23.60
2019-02-21T11:54:42.290Z,23.40
2019-02-21T11:57:11.137Z,23.93
2019-02-21T11:59:38.744Z,25.97
2019-02-21T12:02:06.450Z,23.97
2019-02-21T12:04:33.948Z,23.23
2019-02-21T12:07:01.764Z,25.87
2019-02-21T12:09:29.375Z,22.63
2019-02-21T12:11:57.123Z,24.73
2019-02-21T12:14:24.594Z,24.87
2019-02-21T12:16:52.111Z,24.17
2019-02-21T12:19:19.838Z,23.60
2019-02-21T12:21:58.391Z,22.50
2019-02-21T12:24:18.233Z,22.90
2019-02-21T12:26:48.115Z,23.50
2019-02-21T12:29:16.045Z,23.60
2019-02-21T12:31:43.820Z,21.57
2019-02-21T12:34:11.647Z,24.50
2019-02-21T12:36:39.702Z,25.87
2019-02-21T12:39:07.523Z,25.13
2019-02-21T12:41:35.350Z,23.87
2019-02-21T12:44:02.835Z,23.87
2019-02-21T12:46:30.336Z,23.73
2019-02-21T12:48:58.240Z,22.87
2019-02-21T12:51:25.743Z,23.37
2019-02-21T12:53:53.874Z,24.10
2019-02-21T12:56:21.679Z,23.50
2019-02-21T12:58:49.503Z,24.90
2019-02-21T13:01:17.246Z,24.70
2019-02-21T13:03:44.795Z,23.90
2019-02-21T13:06:12.643Z,23.77
2019-02-21T13:08:40.502Z,23.50
2019-02-21T13:11:10.010Z,23.00
2019-02-21T13:13:37.483Z,22.20
2019-02-21T13:16:05.317Z,23.27
2019-02-21T13:18:33.802Z,21.87
2019-02-21T13:21:01.328Z,22.50
2019-02-21T13:23:29.454Z,21.30
2019-02-21T13:25:57.523Z,21.67
2019-02-21T13:28:26.019Z,23.33
2019-02-21T13:30:53.863Z,23.03
2019-02-21T13:33:23.794Z,20.97
2019-02-21T13:35:53.003Z,18.80
2019-02-21T13:38:23.234Z,21.30
2019-02-21T13:40:51.422Z,21.47
2019-02-21T13:43:20.126Z,20.40
2019-02-21T13:45:47.571Z,22.20
2019-02-21T13:48:15.777Z,24.40
2019-02-21T13:50:43.915Z,23.03
2019-02-21T13:53:11.552Z,23.03
2019-02-21T13:55:40.664Z,23.30
2019-02-21T13:58:08.867Z,21.73
2019-02-21T14:00:38.423Z,21.30
2019-02-21T14:03:06.007Z,30.20
2019-02-21T14:05:33.577Z,24.07
2019-02-21T14:08:01.316Z,20.03
2019-02-21T14:10:29.727Z,21.37
2019-02-21T14:12:57.328Z,19.53
2019-02-21T14:15:25.817Z,20.00
2019-02-21T14:17:53.361Z,20.03
2019-02-21T14:20:21.251Z,20.13
2019-02-21T14:22:49.148Z,21.80
2019-02-21T14:25:17.320Z,20.50
2019-02-21T14:27:44.992Z,21.13
2019-02-21T14:30:14.641Z,28.80
2019-02-21T14:32:42.191Z,20.53
2019-02-21T14:35:10.303Z,23.53
2019-02-21T14:37:38.118Z,22.70
2019-02-21T14:40:08.785Z,23.03
2019-02-21T14:42:37.710Z,23.30
2019-02-21T14:45:08.307Z,21.00
2019-02-21T14:47:35.907Z,22.47
2019-02-21T14:50:04.742Z,20.20
2019-02-21T14:52:32.278Z,23.10
2019-02-21T14:55:00.480Z,21.60
2019-02-21T14:57:28.384Z,22.10
2019-02-21T14:59:56.023Z,22.07
2019-02-21T15:02:23.954Z,22.60
2019-02-21T15:04:51.790Z,20.63
2019-02-21T15:07:19.548Z,21.57
2019-02-21T15:09:47.399Z,20.00
2019-02-21T15:12:15.091Z,21.73
2019-02-21T15:14:43.278Z,20.23
2019-02-21T15:17:11.213Z,19.80
2019-02-21T15:19:39.166Z,20.20
2019-02-21T15:22:07.275Z,22.40
2019-02-21T15:24:34.811Z,21.50
2019-02-21T15:27:08.436Z,25.13
2019-02-21T15:29:32.299Z,23.80
2019-02-21T15:32:10.257Z,19.30
2019-02-21T15:34:29.720Z,19.73
2019-02-21T15:36:57.537Z,23.50
2019-02-21T15:39:25.044Z,22.90
2019-02-21T15:41:52.975Z,19.97
2019-02-21T15:44:20.871Z,19.27
2019-02-21T15:46:48.362Z,22.00
2019-02-21T15:49:16.270Z,17.87
2019-02-21T15:51:44.214Z,21.57
2019-02-21T15:54:12.592Z,23.73
2019-02-21T15:56:40.249Z,21.40
2019-02-21T15:59:08.259Z,22.10
2019-02-21T16:01:46.889Z,22.37
2019-02-21T16:04:06.620Z,23.70
2019-02-21T16:06:34.738Z,27.93
2019-02-21T16:09:15.419Z,25.53
2019-02-21T16:11:34.539Z,44.20
2019-02-21T16:14:03.650Z,25.00
2019-02-21T16:16:32.513Z,20.67
2019-02-21T16:19:00.075Z,26.47
2019-02-21T16:21:29.186Z,21.93
2019-02-21T16:23:57.375Z,21.80
2019-02-21T16:26:25.171Z,22.80
2019-02-21T16:28:53.297Z,24.60
2019-02-21T16:31:21.314Z,23.90
2019-02-21T16:33:49.083Z,21.50
2019-02-21T16:36:17.359Z,22.40
2019-02-21T16:38:45.572Z,19.90
2019-02-21T16:41:13.171Z,20.50
2019-02-21T16:43:41.037Z,19.40
2019-02-21T16:46:08.822Z,21.60
2019-02-21T16:48:36.596Z,18.90
2019-02-21T16:51:05.269Z,19.67
2019-02-21T16:53:33.174Z,19.43
2019-02-21T16:56:01.354Z,17.60
2019-02-21T16:58:29.156Z,18.47
2019-02-21T17:00:56.927Z,20.20
2019-02-21T17:03:27.497Z,19.47
2019-02-21T17:05:55.096Z,20.03
2019-02-21T17:08:22.710Z,25.47
2019-02-21T17:10:51.370Z,27.53
2019-02-21T17:13:19.209Z,23.00
2019-02-21T17:15:47.118Z,21.20
2019-02-21T17:18:14.698Z,19.57
2019-02-21T17:20:43.900Z,19.43
2019-02-21T17:23:22.295Z,19.60
2019-02-21T17:25:41.460Z,20.17
2019-02-21T17:28:09.402Z,21.23
2019-02-21T17:30:37.344Z,19.80
2019-02-21T17:33:05.202Z,19.70
2019-02-21T17:35:32.816Z,18.57
2019-02-21T17:38:01.751Z,17.97
2019-02-21T17:40:29.663Z,22.10
2019-02-21T17:42:57.759Z,27.40
2019-02-21T17:45:25.349Z,24.00
2019-02-21T17:47:53.224Z,30.40
2019-02-21T17:50:20.781Z,24.03
2019-02-21T17:52:49.031Z,21.67
2019-02-21T17:55:16.815Z,17.57
2019-02-21T17:57:46.839Z,20.17
2019-02-21T18:00:17.646Z,21.00
2019-02-21T18:02:45.532Z,18.80
2019-02-21T18:05:13.124Z,19.03
2019-02-21T18:07:41.011Z,18.50
2019-02-21T18:10:10.637Z,25.57
2019-02-21T18:12:38.503Z,23.30
2019-02-21T18:15:07.178Z,19.83
2019-02-21T18:17:35.533Z,20.53
2019-02-21T18:20:03.892Z,19.47
2019-02-21T18:22:32.087Z,17.30
2019-02-21T18:25:00.044Z,18.10
2019-02-21T18:27:27.877Z,16.20
2019-02-21T18:29:55.462Z,17.43
2019-02-21T18:32:23.295Z,17.47
2019-02-21T18:34:52.410Z,17.30
2019-02-21T18:37:20.518Z,15.87
2019-02-21T18:39:48.352Z,16.00
2019-02-21T18:42:15.996Z,17.50
2019-02-21T18:44:43.478Z,16.30
2019-02-21T18:47:11.137Z,18.00
2019-02-21T18:49:38.746Z,17.83
2019-02-21T18:52:06.841Z,20.07
2019-02-21T18:54:34.425Z,17.27
2019-02-21T18:57:02.317Z,17.30
2019-02-21T18:59:31.947Z,16.03
2019-02-21T19:01:59.770Z,17.63
2019-02-21T19:04:27.286Z,18.60
2019-02-21T19:06:55.082Z,18.00
2019-02-21T19:09:23.283Z,19.27
2019-02-21T19:11:51.434Z,22.27
2019-02-21T19:14:19.295Z,21.70
2019-02-21T19:16:47.088Z,22.90
2019-02-21T19:19:14.612Z,22.80
2019-02-21T19:21:42.502Z,21.23
2019-02-21T19:24:09.958Z,22.60
2019-02-21T19:26:37.792Z,19.60
2019-02-21T19:29:05.634Z,20.00
2019-02-21T19:31:34.442Z,19.37
2019-02-21T19:34:02.583Z,18.20
2019-02-21T19:36:30.744Z,19.67
2019-02-21T19:38:59.305Z,21.07
2019-02-21T19:41:26.939Z,19.37
2019-02-21T19:43:54.419Z,19.90
2019-02-21T19:46:22.375Z,18.37
2019-02-21T19:48:51.151Z,18.30
2019-02-21T19:51:19.171Z,17.77
2019-02-21T19:53:46.885Z,16.70
2019-02-21T19:56:16.874Z,20.13
2019-02-21T19:58:45.009Z,17.50
2019-02-21T20:01:13.098Z,19.00
2019-02-21T20:03:40.748Z,20.93
2019-02-21T20:06:09.688Z,22.00
2019-02-21T20:08:37.187Z,20.63
2019-02-21T20:11:05.192Z,19.20
2019-02-21T20:13:32.643Z,20.30
2019-02-21T20:16:00.498Z,19.80
2019-02-21T20:18:28.081Z,19.47
2019-02-21T20:20:56.324Z,18.20
2019-02-21T20:23:23.911Z,17.20
2019-02-21T20:25:51.711Z,19.40
2019-02-21T20:28:19.859Z,20.57
2019-02-21T20:30:47.450Z,18.57
2019-02-21T20:33:15.497Z,19.30
2019-02-21T20:35:43.472Z,21.67
2019-02-21T20:38:11.288Z,30.67
2019-02-21T20:40:38.827Z,35.27
2019-02-21T20:43:06.486Z,24.20
2019-02-21T20:45:34.632Z,22.03
2019-02-21T20:48:02.115Z,22.87
2019-02-21T20:50:29.793Z,22.03
2019-02-21T20:52:57.502Z,21.90
2019-02-21T20:55:25.294Z,20.60
2019-02-21T20:57:53.008Z,19.40
2019-02-21T21:00:20.996Z,17.80
2019-02-21T21:02:48.599Z,19.10
2019-02-21T21:05:16.170Z,17.10
2019-02-21T21:07:43.791Z,18.77
2019-02-21T21:10:12.429Z,19.80
2019-02-21T21:12:40.643Z,18.10
2019-02-21T21:15:09.726Z,18.10
2019-02-21T21:17:37.710Z,19.97
2019-02-21T21:20:15.837Z,18.77
2019-02-21T21:22:36.418Z,19.97
2019-02-21T21:25:05.031Z,20.00
2019-02-21T21:27:33.203Z,18.63
2019-02-21T21:30:01.068Z,18.50
2019-02-21T21:32:28.898Z,19.50
2019-02-21T21:34:56.461Z,19.90
2019-02-21T21:37:24.046Z,20.10
2019-02-21T21:39:51.618Z,17.97
2019-02-21T21:42:19.754Z,19.40
2019-02-21T21:44:47.951Z,18.90
2019-02-21T21:47:15.531Z,18.93
2019-02-21T21:49:43.062Z,18.70
2019-02-21T21:52:11.014Z,19.43
2019-02-21T21:54:38.815Z,19.03
2019-02-21T21:57:06.446Z,19.10
2019-02-21T21:59:34.719Z,19.70
2019-02-21T22:02:02.296Z,19.83
2019-02-21T22:04:29.878Z,19.50
2019-02-21T22:06:57.402Z,20.10
2019-02-21T22:09:25.277Z,20.00
2019-02-21T22:11:53.309Z,18.77
2019-02-21T22:14:20.910Z,19.90
2019-02-21T22:16:48.662Z,20.40
2019-02-21T22:19:18.706Z,21.30
2019-02-21T22:21:46.312Z,19.87
2019-02-21T22:24:13.928Z,21.70
2019-02-21T22:26:41.486Z,20.30
2019-02-21T22:29:09.396Z,21.40
2019-02-21T22:31:37.278Z,21.37
2019-02-21T22:34:04.779Z,20.10
2019-02-21T22:36:33.031Z,20.17
2019-02-21T22:39:02.073Z,20.80
2019-02-21T22:41:30.056Z,20.93
2019-02-21T22:43:57.632Z,20.37
2019-02-21T22:46:26.271Z,18.87
2019-02-21T22:48:53.867Z,19.00
2019-02-21T22:51:21.455Z,18.87
2019-02-21T22:53:49.567Z,18.67
2019-02-21T22:56:17.471Z,19.20
2019-02-21T22:58:45.449Z,18.53
2019-02-21T23:01:27.484Z,21.40
2019-02-21T23:04:02.966Z,20.20
2019-02-21T23:06:47.540Z,20.83
2019-02-21T23:09:27.027Z,20.87
2019-02-21T23:11:49.057Z,22.63
2019-02-21T23:14:19.285Z,25.90
2019-02-21T23:16:46.545Z,24.50
2019-02-21T23:19:14.170Z,24.10
2019-02-21T23:21:42.697Z,23.73
2019-02-21T23:24:10.210Z,23.90
2019-02-21T23:26:37.791Z,24.63
2019-02-21T23:29:05.339Z,23.70
2019-02-21T23:31:33.200Z,20.20
2019-02-21T23:34:01.134Z,21.77
2019-02-21T23:36:28.726Z,20.37
2019-02-21T23:38:56.525Z,20.33
2019-02-21T23:41:24.118Z,20.07
2019-02-21T23:43:51.611Z,19.00
2019-02-21T23:46:19.856Z,19.50
2019-02-21T23:48:48.185Z,19.03
2019-02-21T23:51:16.428Z,19.97
2019-02-21T23:53:44.025Z,19.50
2019-02-21T23:56:11.667Z,20.90
2019-02-21T23:58:39.178Z,20.60
